createdAt,value
2022-11-24T00:01:53.714Z,49.86
2022-11-24T00:04:23.309Z,50.31
2022-11-24T00:06:54.398Z,50.42
2022-11-24T00:09:23.510Z,50.08
2022-11-24T00:11:52.607Z,50.06
2022-11-24T00:14:22.116Z,49.91
2022-11-24T00:16:54.441Z,50.18
2022-11-24T00:19:23.640Z,50.38
2022-11-24T00:21:52.707Z,50.27
2022-11-24T00:24:21.800Z,50.40
2022-11-24T00:26:51.205Z,50.70
2022-11-24T00:29:20.435Z,50.82
2022-11-24T00:31:49.571Z,50.96
2022-11-24T00:34:18.916Z,50.80
2022-11-24T00:36:47.779Z,50.64
2022-11-24T00:39:18.317Z,50.85
2022-11-24T00:41:47.451Z,50.95
2022-11-24T00:44:16.621Z,51.26
2022-11-24T00:46:45.874Z,51.37
2022-11-24T00:49:15.132Z,51.08
2022-11-24T00:51:46.957Z,51.63
2022-11-24T00:54:16.005Z,51.80
2022-11-24T00:56:45.066Z,51.86
2022-11-24T00:59:14.077Z,51.78
2022-11-24T01:01:43.948Z,51.96
2022-11-24T01:04:13.048Z,51.92
2022-11-24T01:06:42.290Z,52.16
2022-11-24T01:09:13.189Z,51.77
2022-11-24T01:12:00.423Z,52.03
2022-11-24T01:14:30.391Z,52.08
2022-11-24T01:17:00.046Z,52.01
2022-11-24T01:19:29.208Z,51.82
2022-11-24T01:21:58.835Z,51.97
2022-11-24T01:24:27.955Z,52.06
2022-11-24T01:26:57.039Z,51.92
2022-11-24T01:29:27.306Z,52.03
2022-11-24T01:31:56.307Z,52.01
2022-11-24T01:34:25.269Z,52.14
2022-11-24T01:36:54.435Z,52.44
2022-11-24T01:39:23.352Z,52.16
2022-11-24T01:41:53.820Z,52.15
2022-11-24T01:44:32.978Z,52.13
2022-11-24T01:47:26.271Z,52.29
2022-11-24T01:50:01.404Z,52.31
2022-11-24T01:52:55.538Z,52.27
2022-11-24T01:55:35.280Z,52.35
2022-11-24T01:58:25.775Z,52.39
2022-11-24T02:00:56.028Z,52.44
2022-11-24T02:03:32.418Z,52.72
2022-11-24T02:06:15.681Z,52.85
2022-11-24T02:08:56.632Z,52.70
2022-11-24T02:11:32.133Z,52.87
2022-11-24T02:14:01.862Z,52.89
2022-11-24T02:16:31.766Z,53.16
2022-11-24T02:19:01.028Z,53.41
2022-11-24T02:21:30.451Z,53.50
2022-11-24T02:24:14.325Z,53.47
2022-11-24T02:26:50.159Z,53.59
2022-11-24T02:29:21.323Z,53.93
2022-11-24T02:32:00.805Z,54.28
2022-11-24T02:34:29.996Z,54.39
2022-11-24T02:36:59.059Z,54.43
2022-11-24T02:39:28.110Z,54.68
2022-11-24T02:42:06.645Z,54.39
2022-11-24T02:44:48.344Z,54.29
2022-11-24T02:47:17.387Z,54.30
2022-11-24T02:49:46.487Z,54.27
2022-11-24T02:52:17.000Z,54.39
2022-11-24T02:54:46.230Z,54.59
2022-11-24T02:57:15.396Z,54.84
2022-11-24T02:59:44.537Z,55.05
2022-11-24T03:02:13.738Z,55.17
2022-11-24T03:04:45.755Z,55.37
2022-11-24T03:07:15.805Z,55.50
2022-11-24T03:09:44.968Z,55.56
2022-11-24T03:12:13.937Z,55.85
2022-11-24T03:14:42.889Z,55.72
2022-11-24T03:17:11.965Z,55.66
2022-11-24T03:19:40.933Z,55.55
2022-11-24T03:22:10.164Z,55.60
2022-11-24T03:24:39.398Z,55.66
2022-11-24T03:27:08.732Z,55.73
2022-11-24T03:29:37.819Z,55.77
2022-11-24T03:32:07.145Z,56.00
2022-11-24T03:34:36.447Z,56.21
2022-11-24T03:37:06.288Z,56.21
2022-11-24T03:39:35.370Z,56.11
2022-11-24T03:42:04.457Z,56.07
2022-11-24T03:44:33.948Z,56.37
2022-11-24T03:47:03.348Z,56.40
2022-11-24T03:49:33.056Z,56.21
2022-11-24T03:52:07.867Z,56.47
2022-11-24T03:54:37.870Z,56.30
2022-11-24T03:57:07.201Z,55.82
2022-11-24T03:59:36.518Z,56.06
2022-11-24T04:02:05.554Z,56.18
2022-11-24T04:04:34.796Z,56.20
2022-11-24T04:07:06.687Z,56.55
2022-11-24T04:09:35.757Z,56.53
2022-11-24T04:12:23.259Z,56.28
2022-11-24T04:14:52.324Z,56.31
2022-11-24T04:17:21.476Z,56.34
2022-11-24T04:19:50.501Z,56.71
2022-11-24T04:22:19.705Z,56.76
2022-11-24T04:24:48.776Z,56.66
2022-11-24T04:27:17.933Z,56.67
2022-11-24T04:29:46.975Z,56.86
2022-11-24T04:32:16.182Z,56.95
2022-11-24T04:34:45.599Z,56.80
2022-11-24T04:37:15.101Z,56.78
2022-11-24T04:39:46.153Z,56.78
2022-11-24T04:42:15.927Z,56.63
2022-11-24T04:44:44.869Z,56.65
2022-11-24T04:47:27.147Z,56.39
2022-11-24T04:49:56.567Z,56.44
2022-11-24T04:52:27.967Z,55.91
2022-11-24T04:54:56.944Z,55.82
2022-11-24T04:57:28.831Z,55.93
2022-11-24T04:59:57.996Z,55.67
2022-11-24T05:02:27.792Z,55.92
2022-11-24T05:04:56.835Z,56.03
2022-11-24T05:07:26.007Z,55.95
2022-11-24T05:10:13.463Z,56.03
2022-11-24T05:12:45.776Z,56.12
2022-11-24T05:15:17.609Z,55.98
2022-11-24T05:17:46.777Z,55.81
2022-11-24T05:20:16.338Z,55.68
2022-11-24T05:22:46.810Z,55.61
2022-11-24T05:25:16.034Z,55.66
2022-11-24T05:27:45.584Z,55.70
2022-11-24T05:30:15.209Z,55.60
2022-11-24T05:32:44.705Z,55.94
2022-11-24T05:35:14.389Z,56.18
2022-11-24T05:37:43.329Z,56.11
2022-11-24T05:40:13.506Z,56.10
2022-11-24T05:42:47.084Z,55.90
2022-11-24T05:45:22.008Z,55.91
2022-11-24T05:47:52.686Z,55.91
2022-11-24T05:50:24.070Z,55.66
2022-11-24T05:52:53.068Z,55.60
2022-11-24T05:55:22.181Z,55.48
2022-11-24T05:57:58.767Z,55.30
2022-11-24T06:00:28.329Z,55.31
2022-11-24T06:02:59.251Z,55.21
2022-11-24T06:05:30.404Z,54.90
2022-11-24T06:08:01.948Z,54.92
2022-11-24T06:10:31.626Z,54.70
2022-11-24T06:13:00.829Z,54.75
2022-11-24T06:15:30.052Z,54.95
2022-11-24T06:17:59.359Z,54.65
2022-11-24T06:20:32.620Z,54.52
2022-11-24T06:23:03.182Z,54.66
2022-11-24T06:25:32.196Z,54.75
2022-11-24T06:28:06.421Z,54.61
2022-11-24T06:30:35.393Z,54.57
2022-11-24T06:33:04.536Z,54.21
2022-11-24T06:35:33.694Z,54.52
2022-11-24T06:38:02.795Z,54.50
2022-11-24T06:40:31.988Z,54.75
2022-11-24T06:43:01.189Z,55.25
2022-11-24T06:45:30.383Z,55.41
2022-11-24T06:47:59.546Z,55.68
2022-11-24T06:50:33.428Z,55.67
2022-11-24T06:53:02.942Z,56.14
2022-11-24T06:55:32.131Z,56.31
2022-11-24T06:58:01.207Z,56.20
2022-11-24T07:00:33.171Z,56.16
2022-11-24T07:03:02.798Z,56.34
2022-11-24T07:05:32.051Z,56.23
2022-11-24T07:08:04.156Z,56.26
2022-11-24T07:10:33.301Z,56.39
2022-11-24T07:13:04.943Z,56.39
2022-11-24T07:15:34.175Z,56.38
2022-11-24T07:18:03.241Z,56.37
2022-11-24T07:20:32.261Z,56.57
2022-11-24T07:23:04.010Z,56.48
2022-11-24T07:25:33.209Z,56.49
2022-11-24T07:28:02.670Z,56.63
2022-11-24T07:30:31.846Z,56.51
2022-11-24T07:33:03.529Z,56.71
2022-11-24T07:35:36.033Z,56.87
2022-11-24T07:38:06.038Z,56.64
2022-11-24T07:40:35.530Z,56.61
2022-11-24T07:43:04.970Z,56.69
2022-11-24T07:45:34.524Z,56.72
2022-11-24T07:48:03.657Z,56.80
2022-11-24T07:50:32.755Z,56.79
2022-11-24T07:53:06.122Z,56.73
2022-11-24T07:55:35.301Z,56.77
2022-11-24T07:58:05.362Z,56.74
2022-11-24T08:00:34.452Z,56.82
2022-11-24T08:03:03.624Z,56.86
2022-11-24T08:05:32.564Z,56.95
2022-11-24T08:08:02.086Z,57.21
2022-11-24T08:10:31.020Z,57.15
2022-11-24T08:13:03.806Z,57.27
2022-11-24T08:15:32.870Z,57.39
2022-11-24T08:18:04.651Z,57.39
2022-11-24T08:20:33.753Z,57.49
2022-11-24T08:23:03.003Z,57.55
2022-11-24T08:25:34.810Z,57.65
2022-11-24T08:28:05.655Z,57.95
2022-11-24T08:30:34.918Z,58.15
2022-11-24T08:33:03.886Z,58.50
2022-11-24T08:35:32.785Z,58.58
2022-11-24T08:38:04.848Z,58.74
2022-11-24T08:40:34.665Z,58.79
2022-11-24T08:43:03.936Z,58.75
2022-11-24T08:45:36.753Z,59.01
2022-11-24T08:48:10.849Z,59.21
2022-11-24T08:50:39.827Z,59.27
2022-11-24T08:53:08.932Z,59.38
2022-11-24T08:55:38.012Z,59.41
2022-11-24T08:58:07.016Z,59.61
2022-11-24T09:00:36.218Z,59.60
2022-11-24T09:03:06.656Z,59.73
2022-11-24T09:05:51.891Z,59.86
2022-11-24T09:08:22.093Z,59.86
2022-11-24T09:10:51.143Z,59.71
2022-11-24T09:13:20.171Z,59.89
2022-11-24T09:15:49.299Z,59.85
2022-11-24T09:18:18.440Z,59.99
2022-11-24T09:20:47.402Z,59.96
2022-11-24T09:23:17.172Z,60.12
2022-11-24T09:25:46.298Z,60.07
2022-11-24T09:28:15.560Z,60.10
2022-11-24T09:30:44.861Z,60.19
2022-11-24T09:33:14.179Z,60.21
2022-11-24T09:35:43.084Z,60.15
2022-11-24T09:38:12.403Z,60.18
2022-11-24T09:40:41.556Z,60.34
2022-11-24T09:43:27.162Z,60.56
2022-11-24T09:46:20.753Z,60.56
2022-11-24T09:48:58.119Z,60.81
2022-11-24T09:51:33.184Z,60.92
2022-11-24T09:54:10.903Z,61.12
2022-11-24T09:56:44.300Z,61.21
2022-11-24T09:59:21.365Z,61.27
2022-11-24T10:01:53.963Z,61.29
2022-11-24T10:04:29.780Z,61.21
2022-11-24T10:07:13.837Z,61.21
2022-11-24T10:10:10.244Z,61.26
2022-11-24T10:13:23.374Z,61.26
2022-11-24T10:16:05.305Z,61.30
2022-11-24T10:18:45.832Z,61.32
2022-11-24T10:21:48.775Z,61.38
2022-11-24T10:25:05.029Z,61.52
2022-11-24T10:27:43.581Z,61.74
2022-11-24T10:30:23.199Z,61.91
2022-11-24T10:33:30.545Z,61.99
2022-11-24T10:36:18.154Z,62.14
2022-11-24T10:39:12.126Z,62.17
2022-11-24T10:42:10.028Z,62.30
2022-11-24T10:44:40.785Z,62.51
2022-11-24T10:47:23.812Z,62.79
2022-11-24T10:50:07.722Z,62.92
2022-11-24T10:52:48.808Z,62.87
2022-11-24T10:55:18.114Z,62.88
2022-11-24T10:57:47.287Z,62.95
2022-11-24T11:00:22.130Z,63.04
2022-11-24T11:03:11.199Z,62.93
2022-11-24T11:05:45.121Z,62.95
2022-11-24T11:08:20.899Z,63.14
2022-11-24T11:11:16.051Z,63.21
2022-11-24T11:14:03.008Z,63.38
2022-11-24T11:16:47.190Z,63.42
2022-11-24T11:19:49.834Z,63.45
2022-11-24T11:22:32.285Z,63.42
2022-11-24T11:25:20.823Z,63.31
2022-11-24T11:27:50.774Z,63.27
2022-11-24T11:36:17.977Z,63.10
2022-11-24T11:38:49.676Z,62.90
2022-11-24T11:41:41.648Z,62.80
2022-11-24T11:44:30.160Z,62.95
2022-11-24T11:47:10.269Z,63.23
2022-11-24T11:49:41.070Z,63.32
2022-11-24T11:52:43.723Z,63.37
2022-11-24T11:55:22.510Z,63.48
2022-11-24T11:58:06.575Z,63.63
2022-11-24T12:00:47.879Z,63.77
2022-11-24T12:03:54.166Z,63.68
2022-11-24T12:06:54.538Z,63.67
2022-11-24T12:10:02.887Z,63.77
2022-11-24T12:12:59.629Z,63.72
2022-11-24T12:15:43.579Z,63.75
2022-11-24T12:18:57.105Z,63.70
2022-11-24T12:22:07.662Z,63.63
2022-11-24T12:25:03.656Z,63.65
2022-11-24T12:28:24.420Z,63.78
2022-11-24T12:31:08.145Z,63.56
2022-11-24T12:34:01.352Z,63.54
2022-11-24T12:37:27.973Z,63.45
2022-11-24T12:40:11.264Z,63.63
2022-11-24T12:42:40.443Z,63.70
2022-11-24T12:45:16.197Z,63.61
2022-11-24T12:48:01.610Z,63.67
2022-11-24T12:50:34.503Z,63.72
2022-11-24T12:53:25.887Z,63.85
2022-11-24T12:55:58.188Z,63.73
2022-11-24T12:58:46.794Z,63.77
2022-11-24T13:01:42.045Z,63.74
2022-11-24T13:04:32.294Z,63.80
2022-11-24T13:07:55.358Z,63.88
2022-11-24T13:10:54.079Z,63.74
2022-11-24T13:13:19.636Z,63.64
2022-11-24T13:16:20.716Z,63.71
2022-11-24T13:19:08.404Z,63.68
2022-11-24T13:21:49.209Z,63.75
2022-11-24T13:24:32.604Z,63.61
2022-11-24T13:27:17.218Z,63.55
2022-11-24T13:29:49.552Z,63.41
2022-11-24T13:32:22.521Z,63.37
2022-11-24T13:34:56.042Z,63.21
2022-11-24T13:37:26.657Z,63.16
2022-11-24T13:40:18.213Z,63.20
2022-11-24T13:43:02.243Z,63.00
2022-11-24T13:45:44.414Z,62.97
2022-11-24T13:48:22.942Z,63.08
2022-11-24T13:50:52.138Z,63.00
2022-11-24T13:53:49.600Z,63.04
2022-11-24T13:56:18.607Z,63.16
2022-11-24T13:58:56.654Z,63.15
2022-11-24T14:01:42.040Z,63.30
2022-11-24T14:04:32.566Z,63.40
2022-11-24T14:07:13.716Z,63.41
2022-11-24T14:09:50.844Z,63.30
2022-11-24T14:12:23.390Z,63.09
2022-11-24T14:15:00.670Z,63.02
2022-11-24T14:17:30.268Z,63.14
2022-11-24T14:20:00.309Z,63.20
2022-11-24T14:22:55.296Z,63.24
2022-11-24T14:25:34.547Z,63.22
2022-11-24T14:28:04.183Z,63.42
2022-11-24T14:30:33.536Z,63.54
2022-11-24T14:33:05.400Z,63.61
2022-11-24T14:35:37.135Z,63.74
2022-11-24T14:38:08.144Z,63.84
2022-11-24T14:40:46.604Z,64.00
2022-11-24T14:43:29.520Z,63.91
2022-11-24T14:46:02.575Z,63.98
2022-11-24T14:48:55.299Z,64.15
2022-11-24T14:51:34.175Z,64.30
2022-11-24T14:54:24.222Z,64.37
2022-11-24T14:57:09.481Z,64.49
2022-11-24T14:59:39.380Z,64.65
2022-11-24T15:02:49.391Z,64.85
2022-11-24T15:05:20.163Z,65.15
2022-11-24T15:07:53.877Z,65.25
2022-11-24T15:10:43.385Z,65.36
2022-11-24T15:13:25.097Z,65.55
2022-11-24T15:16:06.474Z,65.76
2022-11-24T15:18:56.474Z,66.05
2022-11-24T15:21:39.285Z,66.25
2022-11-24T15:24:19.228Z,66.43
2022-11-24T15:26:48.989Z,66.56
2022-11-24T15:29:18.666Z,66.81
2022-11-24T15:31:52.414Z,66.93
2022-11-24T15:34:23.232Z,67.00
2022-11-24T15:36:52.404Z,67.18
2022-11-24T15:39:21.432Z,67.35
2022-11-24T15:41:50.656Z,67.49
2022-11-24T15:44:19.604Z,67.48
2022-11-24T15:46:48.706Z,67.71
2022-11-24T15:49:17.982Z,67.92
2022-11-24T15:51:49.793Z,68.06
2022-11-24T15:54:20.862Z,68.21
2022-11-24T15:56:49.913Z,68.33
2022-11-24T15:59:21.085Z,68.23
2022-11-24T16:01:51.659Z,68.39
2022-11-24T16:04:21.667Z,68.47
2022-11-24T16:06:50.687Z,68.59
2022-11-24T16:09:19.877Z,68.67
2022-11-24T16:11:49.005Z,68.69
2022-11-24T16:14:18.044Z,68.87
2022-11-24T16:16:47.248Z,68.80
2022-11-24T16:19:16.984Z,68.80
2022-11-24T16:21:49.941Z,68.91
2022-11-24T16:24:18.992Z,68.75
2022-11-24T16:26:48.765Z,68.92
2022-11-24T16:29:18.139Z,69.03
2022-11-24T16:31:48.228Z,68.91
2022-11-24T16:34:18.008Z,68.99
2022-11-24T16:36:47.252Z,69.03
2022-11-24T16:39:16.439Z,69.09
2022-11-24T16:41:45.712Z,68.99
2022-11-24T16:44:14.696Z,69.09
2022-11-24T16:46:45.856Z,69.15
2022-11-24T16:49:15.746Z,69.10
2022-11-24T16:51:44.806Z,69.09
2022-11-24T16:54:13.908Z,69.01
2022-11-24T16:56:42.829Z,68.88
2022-11-24T16:59:12.924Z,68.82
2022-11-24T17:01:42.321Z,68.70
2022-11-24T17:04:12.887Z,68.77
2022-11-24T17:06:42.447Z,68.86
2022-11-24T17:09:12.603Z,68.78
2022-11-24T17:11:41.597Z,68.66
2022-11-24T17:14:12.604Z,68.70
2022-11-24T17:16:42.106Z,68.64
2022-11-24T17:19:11.561Z,68.60
2022-11-24T17:21:40.908Z,68.68
2022-11-24T17:24:16.279Z,68.56
2022-11-24T17:26:49.144Z,68.51
2022-11-24T17:29:18.665Z,68.37
2022-11-24T17:31:47.856Z,68.27
2022-11-24T17:34:16.983Z,68.04
2022-11-24T17:36:47.144Z,67.98
2022-11-24T17:39:20.309Z,67.79
2022-11-24T17:41:52.588Z,67.62
2022-11-24T17:44:21.890Z,67.47
2022-11-24T17:46:51.654Z,67.33
2022-11-24T17:49:22.294Z,67.25
2022-11-24T17:51:51.593Z,67.07
2022-11-24T17:57:27.365Z,66.68
2022-11-24T17:59:56.717Z,66.58
2022-11-24T18:02:26.996Z,66.55
2022-11-24T18:04:59.107Z,66.53
2022-11-24T18:07:28.476Z,66.46
2022-11-24T18:09:58.540Z,66.42
2022-11-24T18:12:27.809Z,66.23
2022-11-24T18:14:57.070Z,66.20
2022-11-24T18:17:26.340Z,66.06
2022-11-24T18:19:55.333Z,66.01
2022-11-24T18:22:49.925Z,65.93
2022-11-24T18:25:13.890Z,65.78
2022-11-24T18:27:43.007Z,65.67
2022-11-24T18:30:12.716Z,65.66
2022-11-24T18:32:42.433Z,65.51
2022-11-24T18:35:12.043Z,65.41
2022-11-24T18:37:45.393Z,65.21
2022-11-24T18:40:14.867Z,65.09
2022-11-24T18:42:44.018Z,65.08
2022-11-24T18:45:13.953Z,64.78
2022-11-24T18:47:43.585Z,64.80
2022-11-24T18:50:13.517Z,64.67
2022-11-24T18:52:43.134Z,64.54
2022-11-24T18:55:13.126Z,64.26
2022-11-24T18:57:42.588Z,63.97
2022-11-24T19:00:13.111Z,63.83
2022-11-24T19:02:42.219Z,63.69
2022-11-24T19:05:11.618Z,63.60
2022-11-24T19:07:40.970Z,63.66
2022-11-24T19:10:11.113Z,63.78
2022-11-24T19:12:40.518Z,63.66
2022-11-24T19:15:10.933Z,63.56
2022-11-24T19:17:40.193Z,63.15
2022-11-24T19:20:10.162Z,62.96
2022-11-24T19:22:39.128Z,63.04
2022-11-24T19:25:09.669Z,62.94
2022-11-24T19:27:39.232Z,62.71
2022-11-24T19:30:10.213Z,62.43
2022-11-24T19:32:39.371Z,62.15
2022-11-24T19:35:09.425Z,61.92
2022-11-24T19:37:38.812Z,61.77
2022-11-24T19:40:09.438Z,61.69
2022-11-24T19:42:38.835Z,61.30
2022-11-24T19:45:09.172Z,60.64
2022-11-24T19:47:38.836Z,60.42
2022-11-24T19:50:10.645Z,60.05
2022-11-24T19:52:40.156Z,59.98
2022-11-24T19:55:09.663Z,59.73
2022-11-24T19:57:38.875Z,59.79
2022-11-24T20:00:13.062Z,59.67
2022-11-24T20:02:42.868Z,59.76
2022-11-24T20:05:12.307Z,59.45
2022-11-24T20:07:42.144Z,58.82
2022-11-24T20:10:12.099Z,58.66
2022-11-24T20:12:41.309Z,58.64
2022-11-24T20:15:11.327Z,58.44
2022-11-24T20:17:40.654Z,57.85
2022-11-24T20:20:10.647Z,57.62
2022-11-24T20:22:40.457Z,57.32
2022-11-24T20:25:11.932Z,57.08
2022-11-24T20:27:41.090Z,57.01
2022-11-24T20:30:11.029Z,57.33
2022-11-24T20:32:40.102Z,57.22
2022-11-24T20:35:16.653Z,57.40
2022-11-24T20:37:47.427Z,56.76
2022-11-24T20:40:16.955Z,56.56
2022-11-24T20:42:46.460Z,56.70
2022-11-24T20:45:15.674Z,56.72
2022-11-24T20:47:45.865Z,56.49
2022-11-24T20:50:15.463Z,56.39
2022-11-24T20:52:44.825Z,56.09
2022-11-24T20:55:13.951Z,56.06
2022-11-24T20:57:43.612Z,56.19
2022-11-24T21:00:13.506Z,56.19
2022-11-24T21:02:42.801Z,56.15
2022-11-24T21:05:12.133Z,56.03
2022-11-24T21:07:41.214Z,55.88
2022-11-24T21:10:10.664Z,55.79
2022-11-24T21:12:39.923Z,55.86
2022-11-24T21:15:10.200Z,56.02
2022-11-24T21:17:40.272Z,55.90
2022-11-24T21:20:11.644Z,55.56
2022-11-24T21:22:41.263Z,55.33
2022-11-24T21:25:11.289Z,55.14
2022-11-24T21:27:41.020Z,55.09
2022-11-24T21:30:11.197Z,54.98
2022-11-24T21:32:40.632Z,54.83
2022-11-24T21:35:10.310Z,54.83
2022-11-24T21:37:39.925Z,55.13
2022-11-24T21:40:10.013Z,54.76
2022-11-24T21:42:39.191Z,54.93
2022-11-24T21:45:12.800Z,54.82
2022-11-24T21:47:43.346Z,55.17
2022-11-24T21:50:13.783Z,55.38
2022-11-24T21:52:43.419Z,55.08
2022-11-24T21:55:12.503Z,54.81
2022-11-24T21:57:42.170Z,54.70
2022-11-24T22:00:12.095Z,54.95
2022-11-24T22:02:41.636Z,54.78
2022-11-24T22:05:11.458Z,54.74
2022-11-24T22:07:40.692Z,54.76
2022-11-24T22:10:10.986Z,54.27
2022-11-24T22:12:40.322Z,53.99
2022-11-24T22:15:10.875Z,54.16
2022-11-24T22:17:40.014Z,54.19
2022-11-24T22:20:10.146Z,54.17
2022-11-24T22:22:39.295Z,54.56
2022-11-24T22:25:09.452Z,54.41
2022-11-24T22:27:38.780Z,54.63
2022-11-24T22:30:09.271Z,54.77
2022-11-24T22:32:39.305Z,55.12
2022-11-24T22:35:09.837Z,55.21
2022-11-24T22:37:39.089Z,55.18
2022-11-24T22:40:12.386Z,55.18
2022-11-24T22:42:41.522Z,55.36
2022-11-24T22:45:13.847Z,55.24
2022-11-24T22:47:43.162Z,55.45
2022-11-24T22:50:13.175Z,55.68
2022-11-24T22:52:45.335Z,55.85
2022-11-24T22:55:14.637Z,55.83
2022-11-24T22:57:47.908Z,56.03
2022-11-24T23:00:18.786Z,56.30
2022-11-24T23:02:48.666Z,56.32
2022-11-24T23:05:20.735Z,56.46
2022-11-24T23:07:50.280Z,56.58
2022-11-24T23:10:19.726Z,56.92
2022-11-24T23:12:51.224Z,57.24
2022-11-24T23:15:20.581Z,57.52
2022-11-24T23:17:50.892Z,57.72
2022-11-24T23:20:20.292Z,58.06
2022-11-24T23:22:49.520Z,58.32
2022-11-24T23:25:19.118Z,58.62
2022-11-24T23:27:48.483Z,58.80
2022-11-24T23:30:18.201Z,59.00
2022-11-24T23:32:47.625Z,59.26
2022-11-24T23:35:17.238Z,59.46
2022-11-24T23:38:06.616Z,59.75
2022-11-24T23:40:35.943Z,59.98
2022-11-24T23:43:05.156Z,60.22
2022-11-24T23:45:34.418Z,60.42
2022-11-24T23:48:04.116Z,60.63
2022-11-24T23:50:33.492Z,60.77
2022-11-24T23:53:02.781Z,60.90
2022-11-24T23:55:32.167Z,61.00
2022-11-24T23:58:01.170Z,61.12
